createdAt,value
2017-06-21T00:00:52.881Z,18.70
2017-06-21T00:03:19.270Z,18.70
2017-06-21T00:05:45.683Z,18.70
2017-06-21T00:08:12.108Z,18.60
2017-06-21T00:10:38.549Z,18.70
2017-06-21T00:13:05.677Z,18.60
2017-06-21T00:15:32.094Z,18.60
2017-06-21T00:17:58.585Z,18.60
2017-06-21T00:20:24.988Z,18.60
2017-06-21T00:22:51.452Z,18.40
2017-06-21T00:25:17.893Z,18.40
2017-06-21T00:27:44.608Z,18.40
2017-06-21T00:32:43.468Z,18.30
2017-06-21T00:35:09.896Z,18.10
2017-06-21T00:37:36.301Z,18.10
2017-06-21T00:40:02.899Z,18.00
2017-06-21T00:42:29.275Z,18.10
2017-06-21T00:44:55.676Z,18.10
2017-06-21T00:47:22.076Z,18.00
2017-06-21T00:49:48.516Z,18.10
2017-06-21T00:52:14.935Z,17.80
2017-06-21T00:54:41.377Z,18.20
2017-06-21T00:57:07.776Z,18.00
2017-06-21T00:59:34.485Z,18.10
2017-06-21T01:02:00.909Z,18.00
2017-06-21T01:04:28.067Z,18.00
2017-06-21T01:06:55.219Z,18.00
2017-06-21T01:09:22.032Z,18.00
2017-06-21T01:11:48.566Z,18.10
2017-06-21T01:14:14.992Z,18.00
2017-06-21T01:16:41.434Z,17.90
2017-06-21T01:19:07.829Z,17.80
2017-06-21T01:21:34.263Z,17.60
2017-06-21T01:24:00.686Z,17.70
2017-06-21T01:26:27.848Z,17.50
2017-06-21T01:28:54.271Z,17.50
2017-06-21T01:31:21.170Z,17.40
2017-06-21T01:33:47.624Z,17.40
2017-06-21T01:36:14.064Z,17.50
2017-06-21T01:38:40.473Z,17.40
2017-06-21T01:41:07.238Z,17.30
2017-06-21T01:43:34.381Z,17.30
2017-06-21T01:46:00.801Z,17.20
2017-06-21T01:48:27.514Z,17.30
2017-06-21T01:50:53.936Z,17.30
2017-06-21T01:53:20.371Z,17.20
2017-06-21T01:55:47.483Z,17.20
2017-06-21T01:58:13.887Z,17.20
2017-06-21T02:00:41.024Z,17.10
2017-06-21T02:03:07.451Z,17.00
2017-06-21T02:05:33.846Z,17.10
2017-06-21T02:08:00.240Z,17.10
2017-06-21T02:10:26.643Z,17.10
2017-06-21T02:12:53.878Z,17.10
2017-06-21T02:15:20.289Z,17.00
2017-06-21T02:17:46.780Z,17.10
2017-06-21T02:20:13.912Z,17.00
2017-06-21T02:22:40.300Z,17.00
2017-06-21T02:25:06.689Z,16.90
2017-06-21T02:27:33.848Z,16.80
2017-06-21T02:30:00.296Z,16.80
2017-06-21T02:32:26.717Z,16.70
2017-06-21T02:34:53.725Z,16.60
2017-06-21T02:37:20.139Z,16.40
2017-06-21T02:39:46.613Z,16.60
2017-06-21T02:42:13.748Z,16.60
2017-06-21T02:44:40.173Z,16.60
2017-06-21T02:47:06.598Z,16.50
2017-06-21T02:49:33.023Z,16.40
2017-06-21T02:51:59.439Z,16.30
2017-06-21T02:54:25.843Z,16.20
2017-06-21T02:56:52.262Z,16.20
2017-06-21T02:59:18.676Z,16.20
2017-06-21T03:01:45.167Z,16.10
2017-06-21T03:04:11.577Z,16.20
2017-06-21T03:06:38.032Z,16.00
2017-06-21T03:09:04.425Z,16.00
2017-06-21T03:11:30.940Z,16.10
2017-06-21T03:13:58.075Z,16.20
2017-06-21T03:16:25.245Z,16.20
2017-06-21T03:18:51.660Z,16.20
2017-06-21T03:21:18.816Z,16.20
2017-06-21T03:23:46.268Z,16.20
2017-06-21T03:26:12.807Z,16.20
2017-06-21T03:28:39.235Z,16.00
2017-06-21T03:31:05.642Z,15.90
2017-06-21T03:33:32.059Z,16.00
2017-06-21T03:35:58.464Z,15.90
2017-06-21T03:38:24.952Z,15.90
2017-06-21T03:40:51.385Z,15.90
2017-06-21T03:43:17.841Z,15.90
2017-06-21T03:45:44.254Z,15.80
2017-06-21T03:48:10.706Z,15.80
2017-06-21T03:50:37.119Z,15.60
2017-06-21T03:53:03.511Z,15.70
2017-06-21T03:55:29.906Z,15.60
2017-06-21T03:57:57.056Z,15.80
2017-06-21T04:00:23.479Z,15.60
2017-06-21T04:02:49.864Z,16.20
2017-06-21T04:05:16.276Z,15.80
2017-06-21T04:07:42.685Z,15.80
2017-06-21T04:10:09.116Z,15.80
2017-06-21T04:12:35.542Z,15.70
2017-06-21T04:15:01.956Z,15.80
2017-06-21T04:17:28.364Z,15.80
2017-06-21T04:19:54.763Z,15.70
2017-06-21T04:22:21.156Z,15.70
2017-06-21T04:24:47.564Z,15.60
2017-06-21T04:27:21.068Z,15.70
2017-06-21T04:29:47.456Z,15.60
2017-06-21T04:32:13.889Z,15.50
2017-06-21T04:34:40.349Z,15.60
2017-06-21T04:37:06.814Z,15.60
2017-06-21T04:39:33.255Z,15.70
2017-06-21T04:41:59.725Z,15.70
2017-06-21T04:44:26.367Z,15.90
2017-06-21T04:46:53.076Z,16.00
2017-06-21T04:49:19.496Z,16.10
2017-06-21T04:51:45.943Z,16.00
2017-06-21T04:54:12.364Z,16.00
2017-06-21T04:56:38.789Z,15.90
2017-06-21T04:59:05.265Z,15.90
2017-06-21T05:01:31.668Z,15.90
2017-06-21T05:03:58.115Z,16.00
2017-06-21T05:06:24.718Z,16.00
2017-06-21T05:08:51.177Z,16.00
2017-06-21T05:11:17.691Z,16.00
2017-06-21T05:13:44.125Z,15.90
2017-06-21T05:16:10.700Z,16.10
2017-06-21T05:18:37.162Z,16.20
2017-06-21T05:21:03.637Z,16.40
2017-06-21T05:23:30.133Z,16.30
2017-06-21T05:25:56.550Z,16.40
2017-06-21T05:28:22.972Z,16.30
2017-06-21T05:30:49.440Z,16.40
2017-06-21T05:33:15.872Z,16.50
2017-06-21T05:35:42.293Z,16.50
2017-06-21T05:38:08.703Z,16.60
2017-06-21T05:40:35.844Z,16.80
2017-06-21T05:43:03.035Z,16.80
2017-06-21T05:45:29.884Z,16.80
2017-06-21T05:47:56.596Z,16.90
2017-06-21T05:50:23.026Z,17.00
2017-06-21T05:52:49.424Z,17.00
2017-06-21T05:55:16.557Z,17.10
2017-06-21T05:57:43.000Z,17.00
2017-06-21T06:00:09.437Z,17.10
2017-06-21T06:02:35.880Z,17.20
2017-06-21T06:05:02.298Z,17.10
2017-06-21T06:07:28.751Z,17.10
2017-06-21T06:09:55.169Z,17.10
2017-06-21T06:12:21.580Z,17.00
2017-06-21T06:14:47.993Z,17.10
2017-06-21T06:17:15.176Z,17.20
2017-06-21T06:19:41.608Z,17.10
2017-06-21T06:22:08.030Z,17.30
2017-06-21T06:24:34.460Z,17.30
2017-06-21T06:27:00.876Z,17.40
2017-06-21T06:29:27.385Z,17.50
2017-06-21T06:31:53.779Z,17.80
2017-06-21T06:34:20.216Z,17.90
2017-06-21T06:36:46.706Z,18.10
2017-06-21T06:39:13.186Z,18.30
2017-06-21T06:41:39.615Z,18.40
2017-06-21T06:44:06.012Z,18.60
2017-06-21T06:46:33.199Z,18.70
2017-06-21T06:48:59.606Z,18.70
2017-06-21T06:51:25.992Z,18.70
2017-06-21T06:53:52.402Z,18.80
2017-06-21T06:56:18.828Z,18.80
2017-06-21T06:58:45.251Z,18.80
2017-06-21T07:01:11.759Z,18.80
2017-06-21T07:03:38.191Z,18.90
2017-06-21T07:06:05.344Z,19.00
2017-06-21T07:08:31.768Z,19.00
2017-06-21T07:10:59.033Z,19.30
2017-06-21T07:13:26.223Z,19.40
2017-06-21T07:15:52.631Z,19.40
2017-06-21T07:18:19.048Z,19.60
2017-06-21T07:20:45.489Z,19.70
2017-06-21T07:23:11.913Z,19.80
2017-06-21T07:25:39.082Z,20.00
2017-06-21T07:28:06.459Z,20.00
2017-06-21T07:30:32.845Z,20.10
2017-06-21T07:33:00.950Z,20.30
2017-06-21T07:35:27.375Z,20.30
2017-06-21T07:37:53.795Z,20.40
2017-06-21T07:40:20.209Z,20.50
2017-06-21T07:42:46.728Z,20.70
2017-06-21T07:45:13.152Z,20.90
2017-06-21T07:47:43.053Z,21.10
2017-06-21T07:50:09.451Z,21.10
2017-06-21T07:52:36.705Z,21.20
2017-06-21T07:55:03.114Z,21.30
2017-06-21T07:57:29.513Z,21.50
2017-06-21T07:59:55.936Z,21.60
2017-06-21T08:02:25.872Z,21.90
2017-06-21T08:04:52.335Z,21.80
2017-06-21T08:07:18.786Z,21.90
2017-06-21T08:09:45.250Z,22.10
2017-06-21T08:12:11.673Z,22.20
2017-06-21T08:14:38.077Z,22.70
2017-06-21T08:17:04.501Z,23.70
2017-06-21T08:19:30.907Z,23.90
2017-06-21T08:21:58.069Z,26.50
2017-06-21T08:24:24.503Z,26.50
2017-06-21T08:26:50.917Z,28.10
2017-06-21T08:29:17.335Z,28.50
2017-06-21T08:31:43.748Z,30.10
2017-06-21T08:34:10.908Z,30.30
2017-06-21T08:36:37.337Z,30.30
2017-06-21T08:39:03.828Z,30.20
2017-06-21T08:41:30.229Z,30.30
2017-06-21T08:43:56.621Z,30.40
2017-06-21T08:46:23.021Z,30.60
2017-06-21T08:48:49.554Z,31.20
2017-06-21T08:51:15.963Z,31.10
2017-06-21T08:53:43.109Z,30.20
2017-06-21T08:56:09.769Z,30.10
2017-06-21T08:58:36.276Z,30.10
2017-06-21T09:01:02.704Z,28.90
2017-06-21T09:03:29.125Z,28.40
2017-06-21T09:05:55.566Z,27.80
2017-06-21T09:08:22.004Z,26.90
2017-06-21T09:10:48.402Z,26.60
2017-06-21T09:13:14.830Z,26.40
2017-06-21T09:15:41.228Z,26.10
2017-06-21T09:18:07.724Z,25.80
2017-06-21T09:20:34.218Z,25.50
2017-06-21T09:23:00.623Z,25.50
2017-06-21T09:25:27.019Z,25.50
2017-06-21T09:27:53.669Z,25.30
2017-06-21T09:30:20.058Z,25.10
2017-06-21T09:32:46.491Z,25.10
2017-06-21T09:35:13.011Z,25.20
2017-06-21T09:37:39.432Z,25.40
2017-06-21T09:40:05.823Z,25.60
2017-06-21T09:42:32.242Z,25.50
2017-06-21T09:44:58.661Z,25.50
2017-06-21T09:47:25.095Z,25.50
2017-06-21T09:49:51.525Z,25.40
2017-06-21T09:52:17.935Z,25.50
2017-06-21T09:54:45.110Z,25.70
2017-06-21T09:57:12.241Z,25.50
2017-06-21T09:59:38.649Z,25.50
2017-06-21T10:02:05.062Z,25.60
2017-06-21T10:04:31.472Z,25.70
2017-06-21T10:06:57.872Z,25.70
2017-06-21T10:09:24.295Z,25.70
2017-06-21T10:11:50.806Z,25.70
2017-06-21T10:14:17.230Z,25.80
2017-06-21T10:16:43.703Z,25.90
2017-06-21T10:19:10.124Z,26.00
2017-06-21T10:21:36.518Z,26.20
2017-06-21T10:24:02.928Z,26.20
2017-06-21T10:26:29.324Z,26.40
2017-06-21T10:28:55.740Z,26.80
2017-06-21T10:31:22.157Z,26.80
2017-06-21T10:33:48.551Z,26.50
2017-06-21T10:36:14.988Z,26.30
2017-06-21T10:38:41.488Z,26.40
2017-06-21T10:41:07.923Z,26.50
2017-06-21T10:43:39.419Z,26.30
2017-06-21T10:46:05.820Z,26.40
2017-06-21T10:48:32.224Z,26.50
2017-06-21T10:50:58.647Z,26.40
2017-06-21T10:53:25.085Z,26.40
2017-06-21T10:55:51.484Z,26.40
2017-06-21T10:58:17.921Z,26.50
2017-06-21T11:00:45.087Z,26.70
2017-06-21T11:03:11.517Z,26.70
2017-06-21T11:05:38.708Z,26.90
2017-06-21T11:08:05.116Z,26.90
2017-06-21T11:10:31.557Z,26.90
2017-06-21T11:12:57.963Z,27.00
2017-06-21T11:15:24.384Z,26.90
2017-06-21T11:17:50.873Z,27.00
2017-06-21T11:20:17.285Z,27.20
2017-06-21T11:22:43.695Z,27.10
2017-06-21T11:25:11.090Z,27.10
2017-06-21T11:27:38.280Z,27.10
2017-06-21T11:30:04.708Z,27.10
2017-06-21T11:32:31.176Z,27.20
2017-06-21T11:34:57.571Z,27.10
2017-06-21T11:37:23.967Z,27.10
2017-06-21T11:39:51.109Z,27.40
2017-06-21T11:42:18.268Z,27.30
2017-06-21T11:44:44.672Z,27.30
2017-06-21T11:47:11.108Z,27.40
2017-06-21T11:49:37.580Z,27.40
2017-06-21T11:52:03.990Z,27.20
2017-06-21T11:54:30.394Z,27.40
2017-06-21T11:56:56.817Z,27.50
2017-06-21T11:59:23.329Z,27.40
2017-06-21T12:01:49.781Z,27.40
2017-06-21T12:04:16.327Z,27.40
2017-06-21T12:06:42.755Z,27.30
2017-06-21T12:09:09.180Z,27.20
2017-06-21T12:11:35.617Z,27.20
2017-06-21T12:14:02.104Z,27.20
2017-06-21T12:16:28.525Z,27.50
2017-06-21T12:18:54.954Z,27.40
2017-06-21T12:21:21.372Z,27.30
2017-06-21T12:23:47.920Z,27.30
2017-06-21T12:26:14.363Z,27.40
2017-06-21T12:28:40.759Z,27.60
2017-06-21T12:31:07.928Z,27.70
2017-06-21T12:33:34.344Z,27.70
2017-06-21T12:36:00.818Z,27.90
2017-06-21T12:38:27.215Z,27.70
2017-06-21T12:40:54.392Z,27.50
2017-06-21T12:43:20.802Z,27.50
2017-06-21T12:45:47.285Z,27.40
2017-06-21T12:48:13.726Z,27.60
2017-06-21T12:50:40.863Z,27.90
2017-06-21T12:53:08.748Z,27.80
2017-06-21T12:55:35.364Z,27.90
2017-06-21T12:58:01.789Z,27.70
2017-06-21T13:00:28.237Z,27.60
2017-06-21T13:02:54.693Z,27.80
2017-06-21T13:05:21.094Z,27.90
2017-06-21T13:07:47.587Z,28.10
2017-06-21T13:10:14.735Z,28.00
2017-06-21T13:12:43.039Z,28.00
2017-06-21T13:15:09.464Z,28.20
2017-06-21T13:17:35.903Z,28.20
2017-06-21T13:20:02.324Z,28.10
2017-06-21T13:22:28.732Z,27.80
2017-06-21T13:24:55.191Z,28.10
2017-06-21T13:27:21.628Z,28.20
2017-06-21T13:29:51.924Z,28.10
2017-06-21T13:32:18.404Z,28.00
2017-06-21T13:34:44.817Z,28.10
2017-06-21T13:37:11.264Z,28.00
2017-06-21T13:39:37.675Z,28.00
2017-06-21T13:42:04.819Z,28.10
2017-06-21T13:44:31.247Z,28.10
2017-06-21T13:46:57.673Z,28.10
2017-06-21T13:49:27.587Z,28.30
2017-06-21T13:51:54.028Z,28.40
2017-06-21T13:54:20.440Z,28.60
2017-06-21T13:56:46.839Z,28.60
2017-06-21T13:59:13.212Z,28.60
2017-06-21T14:01:39.640Z,28.50
2017-06-21T14:04:06.049Z,28.60
2017-06-21T14:06:32.463Z,28.50
2017-06-21T14:08:58.898Z,28.30
2017-06-21T14:11:25.508Z,28.30
2017-06-21T14:13:52.688Z,28.20
2017-06-21T14:16:19.105Z,28.20
2017-06-21T14:18:46.355Z,28.40
2017-06-21T14:21:12.777Z,28.40
2017-06-21T14:23:39.191Z,28.50
2017-06-21T14:26:07.589Z,28.40
2017-06-21T14:28:34.069Z,28.40
2017-06-21T14:31:00.452Z,28.60
2017-06-21T14:33:26.872Z,28.60
2017-06-21T14:35:53.316Z,28.50
2017-06-21T14:38:19.728Z,28.50
2017-06-21T14:40:46.152Z,28.50
2017-06-21T14:43:12.566Z,28.50
2017-06-21T14:45:38.956Z,28.60
2017-06-21T14:48:05.353Z,28.50
2017-06-21T14:50:31.764Z,28.50
2017-06-21T14:52:58.189Z,28.40
2017-06-21T14:55:24.624Z,28.50
2017-06-21T14:57:51.048Z,28.50
2017-06-21T15:00:18.261Z,28.70
2017-06-21T15:02:44.713Z,28.70
2017-06-21T15:05:11.132Z,28.80
2017-06-21T15:07:37.555Z,28.90
2017-06-21T15:10:03.980Z,28.70
2017-06-21T15:12:38.124Z,28.60
2017-06-21T15:15:05.303Z,28.60
2017-06-21T15:17:31.737Z,28.60
2017-06-21T15:19:58.184Z,28.60
2017-06-21T15:22:24.625Z,28.60
2017-06-21T15:24:51.880Z,28.70
2017-06-21T15:27:18.291Z,28.70
2017-06-21T15:29:44.769Z,28.70
2017-06-21T15:32:11.838Z,28.70
2017-06-21T15:34:39.010Z,28.60
2017-06-21T15:37:05.435Z,28.60
2017-06-21T15:39:32.578Z,28.50
2017-06-21T15:41:59.016Z,28.50
2017-06-21T15:44:25.478Z,28.50
2017-06-21T15:46:51.979Z,28.50
2017-06-21T15:49:19.153Z,28.70
2017-06-21T15:51:45.600Z,28.70
2017-06-21T15:54:12.049Z,28.70
2017-06-21T15:56:38.480Z,28.60
2017-06-21T15:59:04.904Z,28.50
2017-06-21T16:01:31.335Z,28.60
2017-06-21T16:03:57.749Z,28.50
2017-06-21T16:06:24.152Z,28.40
2017-06-21T16:08:50.564Z,28.40
2017-06-21T16:11:17.742Z,28.60
2017-06-21T16:13:44.188Z,28.60
2017-06-21T16:16:11.343Z,28.60
2017-06-21T16:18:37.760Z,28.60
2017-06-21T16:21:04.283Z,28.50
2017-06-21T16:23:30.667Z,28.40
2017-06-21T16:25:57.093Z,28.30
2017-06-21T16:28:23.507Z,28.30
2017-06-21T16:30:49.939Z,28.30
2017-06-21T16:33:16.419Z,28.20
2017-06-21T16:35:43.669Z,28.40
2017-06-21T16:38:10.090Z,28.30
2017-06-21T16:40:36.740Z,28.40
2017-06-21T16:43:03.882Z,28.30
2017-06-21T16:45:32.846Z,28.30
2017-06-21T16:47:59.273Z,28.40
2017-06-21T16:50:25.660Z,28.30
2017-06-21T16:52:52.052Z,28.30
2017-06-21T16:55:18.561Z,28.20
2017-06-21T16:57:46.101Z,28.00
2017-06-21T17:00:12.508Z,28.00
2017-06-21T17:02:38.949Z,28.00
2017-06-21T17:05:05.393Z,28.10
2017-06-21T17:07:31.985Z,28.20
2017-06-21T17:09:58.416Z,28.20
2017-06-21T17:12:25.016Z,28.30
2017-06-21T17:14:51.460Z,28.30
2017-06-21T17:17:17.921Z,28.20
2017-06-21T17:19:44.390Z,28.00
2017-06-21T17:22:10.860Z,27.90
2017-06-21T17:24:37.321Z,27.80
2017-06-21T17:27:03.753Z,27.80
2017-06-21T17:29:36.184Z,27.80
2017-06-21T17:32:09.914Z,27.90
2017-06-21T17:34:39.065Z,28.00
2017-06-21T17:37:05.546Z,27.90
2017-06-21T17:39:32.746Z,27.80
2017-06-21T17:41:59.219Z,27.80
2017-06-21T17:44:25.671Z,27.80
2017-06-21T17:46:52.163Z,27.70
2017-06-21T17:49:18.587Z,27.70
2017-06-21T17:51:45.066Z,27.60
2017-06-21T17:54:11.560Z,27.60
2017-06-21T17:56:37.972Z,27.60
2017-06-21T17:59:04.396Z,27.60
2017-06-21T18:01:30.813Z,27.50
2017-06-21T18:03:57.992Z,27.50
2017-06-21T18:06:24.384Z,27.50
2017-06-21T18:08:50.897Z,27.40
2017-06-21T18:11:17.489Z,27.50
2017-06-21T18:13:44.055Z,27.40
2017-06-21T18:16:10.621Z,27.30
2017-06-21T18:18:38.753Z,27.10
2017-06-21T18:21:05.211Z,27.10
2017-06-21T18:23:32.445Z,27.00
2017-06-21T18:26:02.012Z,26.90
2017-06-21T18:28:28.449Z,26.90
2017-06-21T18:30:55.008Z,26.90
2017-06-21T18:33:21.741Z,27.00
2017-06-21T18:35:48.349Z,27.10
2017-06-21T18:38:16.504Z,27.00
2017-06-21T18:40:44.025Z,26.60
2017-06-21T18:43:11.272Z,26.80
2017-06-21T18:45:37.783Z,26.60
2017-06-21T18:48:04.561Z,26.60
2017-06-21T18:50:31.528Z,26.60
2017-06-21T18:52:58.061Z,26.50
2017-06-21T18:55:25.344Z,26.50
2017-06-21T18:57:51.839Z,26.50
2017-06-21T19:00:18.314Z,26.40
2017-06-21T19:02:44.829Z,26.40
2017-06-21T19:05:11.417Z,26.30
2017-06-21T19:07:37.877Z,26.20
2017-06-21T19:10:04.280Z,26.10
2017-06-21T19:12:30.756Z,26.10
2017-06-21T19:14:58.068Z,26.00
2017-06-21T19:17:24.789Z,26.00
2017-06-21T19:19:51.409Z,26.00
2017-06-21T19:22:21.008Z,26.00
2017-06-21T19:24:48.848Z,25.90
2017-06-21T19:27:15.423Z,25.90
2017-06-21T19:29:42.224Z,25.70
2017-06-21T19:32:08.740Z,25.50
2017-06-21T19:34:35.204Z,25.50
2017-06-21T19:37:01.692Z,25.50
2017-06-21T19:39:28.209Z,25.40
2017-06-21T19:41:54.685Z,25.40
2017-06-21T19:44:21.088Z,25.30
2017-06-21T19:46:48.587Z,25.10
2017-06-21T19:49:15.174Z,25.10
2017-06-21T19:51:41.633Z,25.00
2017-06-21T19:54:08.089Z,24.80
2017-06-21T19:56:34.571Z,24.80
2017-06-21T19:59:02.068Z,24.60
2017-06-21T20:01:29.842Z,24.40
2017-06-21T20:03:56.327Z,24.30
2017-06-21T20:06:23.816Z,24.30
2017-06-21T20:08:50.348Z,24.30
2017-06-21T20:11:16.884Z,24.20
2017-06-21T20:13:43.432Z,24.10
2017-06-21T20:16:10.604Z,24.10
2017-06-21T20:18:38.634Z,24.10
2017-06-21T20:21:05.088Z,24.10
2017-06-21T20:23:31.512Z,24.10
2017-06-21T20:25:58.269Z,24.20
2017-06-21T20:28:24.717Z,24.20
2017-06-21T20:30:51.188Z,24.20
2017-06-21T20:33:18.383Z,24.00
2017-06-21T20:35:44.856Z,24.00
2017-06-21T20:38:11.296Z,23.80
2017-06-21T20:40:38.492Z,23.70
2017-06-21T20:43:04.899Z,23.70
2017-06-21T20:45:31.304Z,23.60
2017-06-21T20:47:59.089Z,23.60
2017-06-21T20:50:25.553Z,23.50
2017-06-21T20:52:51.996Z,23.50
2017-06-21T20:55:18.409Z,23.40
2017-06-21T20:57:44.844Z,23.40
2017-06-21T21:00:11.283Z,23.30
2017-06-21T21:02:37.699Z,23.20
2017-06-21T21:07:40.967Z,23.10
2017-06-21T21:10:08.403Z,23.00
2017-06-21T21:12:35.270Z,23.00
2017-06-21T21:15:02.014Z,22.90
2017-06-21T21:17:29.477Z,22.90
2017-06-21T21:19:56.172Z,22.80
2017-06-21T21:22:26.281Z,22.80
2017-06-21T21:24:54.671Z,22.70
2017-06-21T21:27:22.034Z,22.60
2017-06-21T21:29:55.662Z,22.30
2017-06-21T21:32:31.626Z,22.40
2017-06-21T21:34:59.688Z,22.40
2017-06-21T21:37:26.176Z,22.30
2017-06-21T21:39:52.637Z,22.20
2017-06-21T21:42:19.666Z,22.20
2017-06-21T21:44:46.080Z,22.20
2017-06-21T21:47:13.216Z,22.10
2017-06-21T21:49:40.365Z,22.00
2017-06-21T21:52:06.856Z,22.00
2017-06-21T21:54:33.288Z,21.90
2017-06-21T21:56:59.755Z,21.90
2017-06-21T21:59:26.220Z,21.80
2017-06-21T22:01:52.691Z,21.80
2017-06-21T22:04:19.869Z,21.70
2017-06-21T22:06:47.465Z,21.60
2017-06-21T22:09:15.135Z,21.60
2017-06-21T22:11:43.281Z,21.40
2017-06-21T22:14:11.823Z,21.40
2017-06-21T22:16:38.273Z,21.40
2017-06-21T22:19:04.665Z,21.40
2017-06-21T22:21:31.149Z,21.30
2017-06-21T22:23:58.334Z,21.20
2017-06-21T22:26:24.796Z,20.90
2017-06-21T22:28:51.248Z,21.20
2017-06-21T22:31:17.775Z,21.10
2017-06-21T22:33:44.205Z,21.10
2017-06-21T22:36:10.685Z,21.20
2017-06-21T22:38:37.120Z,21.10
2017-06-21T22:41:03.561Z,21.10
2017-06-21T22:43:36.386Z,20.90
2017-06-21T22:46:03.837Z,20.80
2017-06-21T22:48:30.327Z,20.80
2017-06-21T22:50:56.766Z,20.80
2017-06-21T22:53:23.259Z,20.80
2017-06-21T22:55:49.728Z,20.80
2017-06-21T22:58:16.105Z,20.80
2017-06-21T23:00:42.591Z,20.80
2017-06-21T23:03:09.243Z,20.70
2017-06-21T23:05:35.714Z,20.70
2017-06-21T23:08:02.121Z,20.60
2017-06-21T23:10:28.532Z,20.60
2017-06-21T23:12:54.948Z,20.50
2017-06-21T23:15:21.368Z,20.50
2017-06-21T23:17:48.026Z,20.50
2017-06-21T23:20:14.528Z,20.40
2017-06-21T23:22:41.017Z,20.40
2017-06-21T23:25:07.471Z,20.40
2017-06-21T23:27:33.868Z,20.40
2017-06-21T23:30:00.305Z,20.30
2017-06-21T23:32:26.692Z,20.30
2017-06-21T23:34:53.134Z,20.30
2017-06-21T23:37:20.072Z,20.40
2017-06-21T23:39:46.468Z,20.30
2017-06-21T23:42:12.905Z,20.30
2017-06-21T23:44:39.313Z,20.30
2017-06-21T23:47:06.495Z,20.20
2017-06-21T23:49:32.924Z,20.20
2017-06-21T23:51:59.357Z,20.00
2017-06-21T23:54:25.804Z,20.20
2017-06-21T23:56:52.260Z,20.30
2017-06-21T23:59:18.670Z,20.20
